createdAt,value
2017-05-09T00:00:04.158Z,4.26
2017-05-09T00:02:32.448Z,5.26
2017-05-09T00:05:00.744Z,5.00
2017-05-09T00:07:29.822Z,4.38
2017-05-09T00:09:58.106Z,3.72
2017-05-09T00:12:26.447Z,3.40
2017-05-09T00:14:54.737Z,5.20
2017-05-09T00:17:23.025Z,5.24
2017-05-09T00:19:51.433Z,9.20
2017-05-09T00:22:21.226Z,4.34
2017-05-09T00:24:49.558Z,4.66
2017-05-09T00:27:18.711Z,4.02
2017-05-09T00:29:46.997Z,3.96
2017-05-09T00:32:15.325Z,4.12
2017-05-09T00:34:43.645Z,4.42
2017-05-09T00:37:11.940Z,8.56
2017-05-09T00:39:40.280Z,4.66
2017-05-09T00:42:09.333Z,4.00
2017-05-09T00:44:38.446Z,8.18
2017-05-09T00:47:06.917Z,6.52
2017-05-09T00:49:35.981Z,4.84
2017-05-09T00:52:05.834Z,5.28
2017-05-09T00:54:34.121Z,5.64
2017-05-09T00:57:03.169Z,5.24
2017-05-09T00:59:31.506Z,8.92
2017-05-09T01:01:59.793Z,5.58
2017-05-09T01:04:28.083Z,5.52
2017-05-09T01:06:57.186Z,6.82
2017-05-09T01:09:25.469Z,4.44
2017-05-09T01:11:53.757Z,4.64
2017-05-09T01:14:22.116Z,5.84
2017-05-09T01:16:50.409Z,5.22
2017-05-09T01:19:19.471Z,8.72
2017-05-09T01:21:47.807Z,4.70
2017-05-09T01:24:16.867Z,4.40
2017-05-09T01:26:45.168Z,4.06
2017-05-09T01:29:14.282Z,4.14
2017-05-09T01:31:43.339Z,4.16
2017-05-09T01:34:11.632Z,3.76
2017-05-09T01:36:40.771Z,7.74
2017-05-09T01:39:09.063Z,8.16
2017-05-09T01:41:37.359Z,4.92
2017-05-09T01:44:05.713Z,4.44
2017-05-09T01:46:34.773Z,4.14
2017-05-09T01:49:03.063Z,6.28
2017-05-09T01:51:31.398Z,4.06
2017-05-09T01:53:59.713Z,5.34
2017-05-09T01:56:28.002Z,4.64
2017-05-09T01:58:56.330Z,5.92
2017-05-09T02:01:24.612Z,5.78
2017-05-09T02:03:53.191Z,4.44
2017-05-09T02:06:21.518Z,4.70
2017-05-09T02:08:49.829Z,5.34
2017-05-09T02:11:18.119Z,4.16
2017-05-09T02:13:46.453Z,5.76
2017-05-09T02:16:14.744Z,6.22
2017-05-09T02:18:43.799Z,4.94
2017-05-09T02:21:12.906Z,5.04
2017-05-09T02:23:41.191Z,5.48
2017-05-09T02:26:09.479Z,5.02
2017-05-09T02:28:38.582Z,7.30
2017-05-09T02:31:07.642Z,8.46
2017-05-09T02:33:36.742Z,4.52
2017-05-09T02:36:05.804Z,6.82
2017-05-09T02:38:34.095Z,6.90
2017-05-09T02:41:03.195Z,5.92
2017-05-09T02:43:32.242Z,6.40
2017-05-09T02:46:01.457Z,4.02
2017-05-09T02:48:29.857Z,5.76
2017-05-09T02:50:58.919Z,6.30
2017-05-09T02:53:27.275Z,5.38
2017-05-09T02:55:55.566Z,5.72
2017-05-09T02:58:23.870Z,7.60
2017-05-09T03:00:52.197Z,8.92
2017-05-09T03:03:20.485Z,7.26
2017-05-09T03:05:48.773Z,6.80
2017-05-09T03:08:17.099Z,6.04
2017-05-09T03:10:46.272Z,6.14
2017-05-09T03:13:14.565Z,8.54
2017-05-09T03:15:42.905Z,6.22
2017-05-09T03:18:11.962Z,5.90
2017-05-09T03:20:41.066Z,6.24
2017-05-09T03:23:09.362Z,5.84
2017-05-09T03:25:37.646Z,5.34
2017-05-09T03:28:06.049Z,6.26
2017-05-09T03:30:34.333Z,4.62
2017-05-09T03:33:02.622Z,5.80
2017-05-09T03:35:30.958Z,6.30
2017-05-09T03:37:59.251Z,6.50
2017-05-09T03:40:27.638Z,10.40
2017-05-09T03:42:55.975Z,9.76
2017-05-09T03:45:24.389Z,7.24
2017-05-09T03:47:52.907Z,8.12
2017-05-09T03:50:22.009Z,5.48
2017-05-09T03:52:51.078Z,9.56
2017-05-09T03:55:19.369Z,5.76
2017-05-09T03:57:47.701Z,5.68
2017-05-09T04:00:15.987Z,6.48
2017-05-09T04:02:44.277Z,7.04
2017-05-09T04:05:14.119Z,6.08
2017-05-09T04:07:43.179Z,5.82
2017-05-09T04:10:11.469Z,7.46
2017-05-09T04:12:39.806Z,6.92
2017-05-09T04:15:08.095Z,5.46
2017-05-09T04:17:36.385Z,5.64
2017-05-09T04:20:04.718Z,5.76
2017-05-09T04:22:33.009Z,6.18
2017-05-09T04:25:01.293Z,7.26
2017-05-09T04:27:29.625Z,6.64
2017-05-09T04:29:58.684Z,9.28
2017-05-09T04:32:26.973Z,5.88
2017-05-09T04:34:55.329Z,6.06
2017-05-09T04:37:23.622Z,5.36
2017-05-09T04:39:51.949Z,5.76
2017-05-09T04:42:20.246Z,6.98
2017-05-09T04:44:48.546Z,6.80
2017-05-09T04:47:16.879Z,6.44
2017-05-09T04:49:45.932Z,4.40
2017-05-09T04:52:14.226Z,6.44
2017-05-09T04:54:42.657Z,5.54
2017-05-09T04:57:10.945Z,6.04
2017-05-09T04:59:40.024Z,9.50
2017-05-09T05:02:08.380Z,6.72
2017-05-09T05:04:37.437Z,5.22
2017-05-09T05:07:05.733Z,5.86
2017-05-09T05:09:34.132Z,5.22
2017-05-09T05:12:02.437Z,7.44
2017-05-09T05:14:30.773Z,6.86
2017-05-09T05:16:59.876Z,6.32
2017-05-09T05:19:28.945Z,6.10
2017-05-09T05:21:58.813Z,6.58
2017-05-09T05:24:27.105Z,7.14
2017-05-09T05:26:55.399Z,7.56
2017-05-09T05:29:24.513Z,7.18
2017-05-09T05:31:52.890Z,5.62
2017-05-09T05:34:21.302Z,7.06
2017-05-09T05:36:50.401Z,5.70
2017-05-09T05:39:19.465Z,6.82
2017-05-09T05:41:47.766Z,5.44
2017-05-09T05:44:16.869Z,5.02
2017-05-09T05:46:45.930Z,6.50
2017-05-09T05:49:15.769Z,5.48
2017-05-09T05:51:44.871Z,7.56
2017-05-09T05:54:13.979Z,5.26
2017-05-09T05:56:43.038Z,7.92
2017-05-09T05:59:11.364Z,5.30
2017-05-09T06:01:39.693Z,6.64
2017-05-09T06:04:07.989Z,6.84
2017-05-09T06:06:37.044Z,5.00
2017-05-09T06:09:06.349Z,7.96
2017-05-09T06:11:34.658Z,4.40
2017-05-09T06:14:03.713Z,10.40
2017-05-09T06:16:32.047Z,5.70
2017-05-09T06:19:01.846Z,7.66
2017-05-09T06:21:30.935Z,6.80
2017-05-09T06:24:00.009Z,5.70
2017-05-09T06:26:28.307Z,6.40
2017-05-09T06:28:56.639Z,6.20
2017-05-09T06:31:25.700Z,7.00
2017-05-09T06:33:54.804Z,7.98
2017-05-09T06:36:23.870Z,5.44
2017-05-09T06:38:52.998Z,6.46
2017-05-09T06:41:22.057Z,6.18
2017-05-09T06:43:51.170Z,8.22
2017-05-09T06:46:19.471Z,5.18
2017-05-09T06:48:48.549Z,7.24
2017-05-09T06:51:16.944Z,5.52
2017-05-09T06:53:46.020Z,6.06
2017-05-09T06:56:15.142Z,5.42
2017-05-09T06:58:44.215Z,6.28
2017-05-09T07:01:13.393Z,4.52
2017-05-09T07:03:41.705Z,6.74
2017-05-09T07:06:10.773Z,6.24
2017-05-09T07:08:39.255Z,7.00
2017-05-09T07:11:07.557Z,6.32
2017-05-09T07:13:36.618Z,5.76
2017-05-09T07:16:04.997Z,6.40
2017-05-09T07:18:33.301Z,4.00
2017-05-09T07:21:02.380Z,4.52
2017-05-09T07:23:31.519Z,5.22
2017-05-09T07:25:59.817Z,3.76
2017-05-09T07:28:28.121Z,5.10
2017-05-09T07:30:56.477Z,4.24
2017-05-09T07:33:24.886Z,5.18
2017-05-09T07:35:53.194Z,3.64
2017-05-09T07:38:22.329Z,4.10
2017-05-09T07:40:50.634Z,4.20
2017-05-09T07:43:18.940Z,4.16
2017-05-09T07:45:48.052Z,3.84
2017-05-09T07:48:16.364Z,8.12
2017-05-09T07:50:44.683Z,5.74
2017-05-09T07:53:13.043Z,3.80
2017-05-09T07:55:41.353Z,3.96
2017-05-09T07:58:10.414Z,3.82
2017-05-09T08:00:38.763Z,6.44
2017-05-09T08:03:07.831Z,4.10
2017-05-09T08:05:36.141Z,3.74
2017-05-09T08:08:04.491Z,5.86
2017-05-09T08:10:32.803Z,4.48
2017-05-09T08:13:01.097Z,3.36
2017-05-09T08:15:30.955Z,3.52
2017-05-09T08:18:00.026Z,4.08
2017-05-09T08:20:28.328Z,3.68
2017-05-09T08:22:56.686Z,6.54
2017-05-09T08:25:25.750Z,3.78
2017-05-09T08:27:54.077Z,4.00
2017-05-09T08:30:23.177Z,2.82
2017-05-09T08:32:51.510Z,2.40
2017-05-09T08:35:20.592Z,2.86
2017-05-09T08:37:48.934Z,4.56
2017-05-09T08:40:17.241Z,2.66
2017-05-09T08:42:46.309Z,2.86
2017-05-09T08:45:15.424Z,3.34
2017-05-09T08:47:44.480Z,5.52
2017-05-09T08:50:13.599Z,2.98
2017-05-09T08:52:41.905Z,2.24
2017-05-09T08:55:10.983Z,3.52
2017-05-09T08:57:39.330Z,2.22
2017-05-09T09:00:08.412Z,4.44
2017-05-09T09:02:37.525Z,3.48
2017-05-09T09:05:06.714Z,5.42
2017-05-09T09:07:35.008Z,2.20
2017-05-09T09:10:03.362Z,2.56
2017-05-09T09:12:32.429Z,2.24
2017-05-09T09:15:01.550Z,3.76
2017-05-09T09:17:29.862Z,3.54
2017-05-09T09:19:58.941Z,2.72
2017-05-09T09:22:28.066Z,4.42
2017-05-09T09:24:56.387Z,2.02
2017-05-09T09:27:24.693Z,2.62
2017-05-09T09:29:53.043Z,3.10
2017-05-09T09:32:21.348Z,1.74
2017-05-09T09:34:50.414Z,2.62
2017-05-09T09:37:18.798Z,2.56
2017-05-09T09:39:47.878Z,2.58
2017-05-09T09:42:16.182Z,2.68
2017-05-09T09:44:45.319Z,2.44
2017-05-09T09:47:14.390Z,2.64
2017-05-09T09:49:43.511Z,2.26
2017-05-09T09:52:11.819Z,1.96
2017-05-09T09:54:40.123Z,3.44
2017-05-09T09:57:09.250Z,1.86
2017-05-09T09:59:37.558Z,2.72
2017-05-09T10:02:05.861Z,2.90
2017-05-09T10:04:34.201Z,2.98
2017-05-09T10:07:02.505Z,2.34
2017-05-09T10:09:30.810Z,3.72
2017-05-09T10:12:00.050Z,2.66
2017-05-09T10:14:28.357Z,1.80
2017-05-09T10:16:56.663Z,2.86
2017-05-09T10:19:25.773Z,2.30
2017-05-09T10:21:54.081Z,5.28
2017-05-09T10:24:22.391Z,2.90
2017-05-09T10:26:50.744Z,2.80
2017-05-09T10:29:19.042Z,1.60
2017-05-09T10:31:47.349Z,1.64
2017-05-09T10:34:16.457Z,2.50
2017-05-09T10:36:45.541Z,4.08
2017-05-09T10:39:14.668Z,2.34
2017-05-09T10:41:42.982Z,2.18
2017-05-09T10:44:12.061Z,1.60
2017-05-09T10:46:40.411Z,2.30
2017-05-09T10:49:08.715Z,2.72
2017-05-09T10:51:37.786Z,2.94
2017-05-09T10:54:06.913Z,1.74
2017-05-09T10:56:35.225Z,1.44
2017-05-09T10:59:05.111Z,2.40
2017-05-09T11:01:34.177Z,3.12
2017-05-09T11:04:02.490Z,2.34
2017-05-09T11:06:30.837Z,5.04
2017-05-09T11:08:59.134Z,1.80
2017-05-09T11:11:27.429Z,3.76
2017-05-09T11:13:55.777Z,3.30
2017-05-09T11:16:24.093Z,2.72
2017-05-09T11:18:53.154Z,2.30
2017-05-09T11:21:21.495Z,1.84
2017-05-09T11:23:50.574Z,2.84
2017-05-09T11:26:18.874Z,3.84
2017-05-09T11:28:48.004Z,2.48
2017-05-09T11:31:16.305Z,1.68
2017-05-09T11:33:45.381Z,1.60
2017-05-09T11:36:14.610Z,3.04
2017-05-09T11:38:44.423Z,1.78
2017-05-09T11:41:12.771Z,2.16
2017-05-09T11:43:41.841Z,1.60
2017-05-09T11:46:10.957Z,1.78
2017-05-09T11:48:39.426Z,2.00
2017-05-09T11:51:07.730Z,3.92
2017-05-09T11:53:36.125Z,3.82
2017-05-09T11:56:04.428Z,2.42
2017-05-09T11:58:33.503Z,1.74
2017-05-09T12:01:01.849Z,3.96
2017-05-09T12:03:30.153Z,3.08
2017-05-09T12:05:58.536Z,1.88
2017-05-09T12:08:26.887Z,1.70
2017-05-09T12:10:55.193Z,1.72
2017-05-09T12:13:23.504Z,1.94
2017-05-09T12:15:52.622Z,2.64
2017-05-09T12:18:21.700Z,4.12
2017-05-09T12:20:50.007Z,1.80
2017-05-09T12:23:18.389Z,3.34
2017-05-09T12:25:46.684Z,3.08
2017-05-09T12:28:14.988Z,1.24
2017-05-09T12:30:43.342Z,3.92
2017-05-09T12:33:12.444Z,1.50
2017-05-09T12:35:40.749Z,3.40
2017-05-09T12:38:09.869Z,1.92
2017-05-09T12:40:38.177Z,1.72
2017-05-09T12:43:06.486Z,2.18
2017-05-09T12:45:34.823Z,2.00
2017-05-09T12:48:03.121Z,2.14
2017-05-09T12:50:31.475Z,3.04
2017-05-09T12:52:59.778Z,2.12
2017-05-09T12:55:28.073Z,3.08
2017-05-09T12:57:57.209Z,2.34
2017-05-09T13:00:25.508Z,1.80
2017-05-09T13:02:54.571Z,2.50
2017-05-09T13:05:23.690Z,2.08
2017-05-09T13:07:52.767Z,1.90
2017-05-09T13:10:21.071Z,4.32
2017-05-09T13:12:49.426Z,4.14
2017-05-09T13:15:17.730Z,3.78
2017-05-09T13:17:46.041Z,1.64
2017-05-09T13:20:14.412Z,2.36
2017-05-09T13:22:43.475Z,2.02
2017-05-09T13:25:12.580Z,1.52
2017-05-09T13:27:40.887Z,1.82
2017-05-09T13:30:09.191Z,2.32
2017-05-09T13:32:38.301Z,1.78
2017-05-09T13:35:06.609Z,1.66
2017-05-09T13:37:34.921Z,1.58
2017-05-09T13:40:04.026Z,1.98
2017-05-09T13:42:33.097Z,1.86
2017-05-09T13:45:01.398Z,2.42
2017-05-09T13:47:30.515Z,2.30
2017-05-09T13:49:58.814Z,3.08
2017-05-09T13:52:27.120Z,1.34
2017-05-09T13:54:55.473Z,1.80
2017-05-09T13:57:23.778Z,2.50
2017-05-09T13:59:52.082Z,3.06
2017-05-09T14:02:21.193Z,3.58
2017-05-09T14:04:50.266Z,2.82
2017-05-09T14:07:18.578Z,2.62
2017-05-09T14:09:46.956Z,2.50
2017-05-09T14:12:15.254Z,2.98
2017-05-09T14:14:43.563Z,2.28
2017-05-09T14:17:11.919Z,3.18
2017-05-09T14:19:40.223Z,1.36
2017-05-09T14:22:08.519Z,2.48
2017-05-09T14:24:37.638Z,2.40
2017-05-09T14:27:05.968Z,3.52
2017-05-09T14:29:34.275Z,3.26
2017-05-09T14:32:03.523Z,2.20
2017-05-09T14:34:31.825Z,0.94
2017-05-09T14:37:00.894Z,1.52
2017-05-09T14:39:29.241Z,1.46
2017-05-09T14:41:58.305Z,1.78
2017-05-09T14:44:27.424Z,5.42
2017-05-09T14:46:55.726Z,5.18
2017-05-09T14:49:24.034Z,1.32
2017-05-09T14:51:52.378Z,7.18
2017-05-09T14:54:20.671Z,1.66
2017-05-09T14:56:48.977Z,1.96
2017-05-09T14:59:17.319Z,4.42
2017-05-09T15:01:45.618Z,3.38
2017-05-09T15:04:13.922Z,3.04
2017-05-09T15:06:42.265Z,2.42
2017-05-09T15:09:10.574Z,3.24
2017-05-09T15:11:39.638Z,2.36
2017-05-09T15:14:08.002Z,1.58
2017-05-09T15:16:36.300Z,1.58
2017-05-09T15:19:04.608Z,1.70
2017-05-09T15:21:33.707Z,2.40
2017-05-09T15:24:02.769Z,2.40
2017-05-09T15:26:31.121Z,3.26
2017-05-09T15:28:59.424Z,1.58
2017-05-09T15:31:27.724Z,2.68
2017-05-09T15:33:56.069Z,2.54
2017-05-09T15:36:24.385Z,2.66
2017-05-09T15:38:53.473Z,1.74
2017-05-09T15:41:21.825Z,2.64
2017-05-09T15:43:50.133Z,3.70
2017-05-09T15:46:18.457Z,1.58
2017-05-09T15:48:46.808Z,1.84
2017-05-09T15:51:15.876Z,2.66
2017-05-09T15:53:44.193Z,1.40
2017-05-09T15:56:13.331Z,4.54
2017-05-09T15:58:41.687Z,1.42
2017-05-09T16:01:09.988Z,2.12
2017-05-09T16:03:39.122Z,5.14
2017-05-09T16:06:07.426Z,4.20
2017-05-09T16:08:36.494Z,2.42
2017-05-09T16:11:04.837Z,2.30
2017-05-09T16:13:33.906Z,2.92
2017-05-09T16:16:02.303Z,2.50
2017-05-09T16:18:31.474Z,1.20
2017-05-09T16:21:00.534Z,1.20
2017-05-09T16:23:30.373Z,1.76
2017-05-09T16:25:59.447Z,2.50
2017-05-09T16:28:27.741Z,6.10
2017-05-09T16:30:58.033Z,5.38
2017-05-09T16:33:27.104Z,1.52
2017-05-09T16:35:56.228Z,2.46
2017-05-09T16:38:24.523Z,1.22
2017-05-09T16:40:52.820Z,1.40
2017-05-09T16:43:21.946Z,2.24
2017-05-09T16:45:51.005Z,1.94
2017-05-09T16:48:20.142Z,2.50
2017-05-09T16:50:48.440Z,1.68
2017-05-09T16:53:16.746Z,2.50
2017-05-09T16:55:45.089Z,1.90
2017-05-09T16:58:13.385Z,1.28
2017-05-09T17:00:43.229Z,2.20
2017-05-09T17:03:12.295Z,1.42
2017-05-09T17:05:40.597Z,1.60
2017-05-09T17:08:09.713Z,1.38
2017-05-09T17:10:38.013Z,3.40
2017-05-09T17:13:06.366Z,1.50
2017-05-09T17:15:34.904Z,2.22
2017-05-09T17:18:04.966Z,2.20
2017-05-09T17:20:34.105Z,1.84
2017-05-09T17:23:02.412Z,1.44
2017-05-09T17:25:31.475Z,3.02
2017-05-09T17:27:59.817Z,1.52
2017-05-09T17:30:28.121Z,1.36
2017-05-09T17:32:56.423Z,3.12
2017-05-09T17:35:24.779Z,1.14
2017-05-09T17:37:53.842Z,1.78
2017-05-09T17:40:22.150Z,2.22
2017-05-09T17:42:51.266Z,1.08
2017-05-09T17:45:20.333Z,1.24
2017-05-09T17:47:49.430Z,1.22
2017-05-09T17:50:18.558Z,4.14
2017-05-09T17:52:46.865Z,6.10
2017-05-09T17:55:15.165Z,3.04
2017-05-09T17:57:43.541Z,2.88
2017-05-09T18:00:11.846Z,2.54
2017-05-09T18:02:40.152Z,4.54
2017-05-09T18:05:08.477Z,1.64
2017-05-09T18:07:36.843Z,3.48
2017-05-09T18:10:05.189Z,1.58
2017-05-09T18:12:33.494Z,2.44
2017-05-09T18:15:01.798Z,1.84
2017-05-09T18:17:30.936Z,4.00
2017-05-09T18:19:59.238Z,4.50
2017-05-09T18:22:27.529Z,4.30
2017-05-09T18:24:55.881Z,2.36
2017-05-09T18:27:24.182Z,2.96
2017-05-09T18:29:53.273Z,2.30
2017-05-09T18:32:22.366Z,1.78
2017-05-09T18:34:51.430Z,1.14
2017-05-09T18:37:19.746Z,1.46
2017-05-09T18:39:48.849Z,2.08
2017-05-09T18:42:17.150Z,3.66
2017-05-09T18:44:45.463Z,1.44
2017-05-09T18:47:13.781Z,1.76
2017-05-09T18:49:42.077Z,2.92
2017-05-09T18:52:11.203Z,1.92
2017-05-09T18:54:39.497Z,3.32
2017-05-09T18:57:07.836Z,1.20
2017-05-09T18:59:36.904Z,1.12
2017-05-09T19:02:05.209Z,1.52
2017-05-09T19:04:34.306Z,2.12
2017-05-09T19:07:03.444Z,3.14
2017-05-09T19:09:31.743Z,4.60
2017-05-09T19:12:00.089Z,3.20
2017-05-09T19:14:28.398Z,1.90
2017-05-09T19:16:56.714Z,2.50
2017-05-09T19:19:25.066Z,1.46
2017-05-09T19:21:53.382Z,3.90
2017-05-09T19:24:22.481Z,2.48
2017-05-09T19:26:50.829Z,2.32
2017-05-09T19:29:19.130Z,4.12
2017-05-09T19:31:47.429Z,2.20
2017-05-09T19:34:15.778Z,2.30
2017-05-09T19:36:44.109Z,4.68
2017-05-09T19:39:12.411Z,2.04
2017-05-09T19:41:40.758Z,4.34
2017-05-09T19:44:09.821Z,1.02
2017-05-09T19:46:38.123Z,1.30
2017-05-09T19:49:06.441Z,4.66
2017-05-09T19:51:34.781Z,5.12
2017-05-09T19:54:03.131Z,1.42
2017-05-09T19:56:32.208Z,2.12
2017-05-09T19:59:00.513Z,4.10
2017-05-09T20:01:29.613Z,2.48
2017-05-09T20:03:58.684Z,5.20
2017-05-09T20:06:28.533Z,4.52
2017-05-09T20:08:56.834Z,3.82
2017-05-09T20:11:25.138Z,4.46
2017-05-09T20:13:54.984Z,5.04
2017-05-09T20:16:24.050Z,4.74
2017-05-09T20:18:53.887Z,5.46
2017-05-09T20:21:22.963Z,4.52
2017-05-09T20:23:51.301Z,2.98
2017-05-09T20:26:19.606Z,8.20
2017-05-09T20:28:49.470Z,5.18
2017-05-09T20:31:17.867Z,3.96
2017-05-09T20:33:46.966Z,2.14
2017-05-09T20:36:15.311Z,2.54
2017-05-09T20:38:44.382Z,3.28
2017-05-09T20:41:12.694Z,2.88
2017-05-09T20:43:41.818Z,3.04
2017-05-09T20:46:10.138Z,2.66
2017-05-09T20:48:39.389Z,6.50
2017-05-09T20:51:08.516Z,5.48
2017-05-09T20:53:38.449Z,2.50
2017-05-09T20:56:07.889Z,5.02
2017-05-09T20:58:36.186Z,3.92
2017-05-09T21:01:05.247Z,4.54
2017-05-09T21:03:34.346Z,2.72
2017-05-09T21:06:02.646Z,3.46
2017-05-09T21:08:31.093Z,3.42
2017-05-09T21:11:00.193Z,2.90
2017-05-09T21:13:29.255Z,6.12
2017-05-09T21:15:57.546Z,2.76
2017-05-09T21:18:25.907Z,3.66
2017-05-09T21:20:54.208Z,4.08
2017-05-09T21:23:22.562Z,3.76
2017-05-09T21:25:51.671Z,3.40
2017-05-09T21:28:19.954Z,3.08
2017-05-09T21:30:48.239Z,3.70
2017-05-09T21:33:17.406Z,3.10
2017-05-09T21:35:45.698Z,3.22
2017-05-09T21:38:14.069Z,3.02
2017-05-09T21:40:42.410Z,2.94
2017-05-09T21:43:10.725Z,2.58
2017-05-09T21:45:39.009Z,2.54
2017-05-09T21:48:07.371Z,5.04
2017-05-09T21:50:35.662Z,3.66
2017-05-09T21:53:03.957Z,4.22
2017-05-09T21:55:32.294Z,7.10
2017-05-09T21:58:01.378Z,2.50
2017-05-09T22:00:29.675Z,3.22
2017-05-09T22:02:58.854Z,2.52
2017-05-09T22:05:27.926Z,2.60
2017-05-09T22:07:56.223Z,4.26
2017-05-09T22:10:24.553Z,5.90
2017-05-09T22:12:52.839Z,3.38
2017-05-09T22:15:21.144Z,2.20
2017-05-09T22:17:49.503Z,4.44
2017-05-09T22:20:17.794Z,2.06
2017-05-09T22:22:46.081Z,2.90
2017-05-09T22:25:15.178Z,2.00
2017-05-09T22:27:44.241Z,7.04
2017-05-09T22:30:12.536Z,2.18
2017-05-09T22:32:40.868Z,3.78
2017-05-09T22:35:09.165Z,1.88
2017-05-09T22:37:38.246Z,2.60
2017-05-09T22:40:06.581Z,2.40
2017-05-09T22:42:34.875Z,1.80
2017-05-09T22:45:03.947Z,2.24
2017-05-09T22:47:32.323Z,2.84
2017-05-09T22:50:00.617Z,3.16
2017-05-09T22:52:29.674Z,3.32
2017-05-09T22:54:58.037Z,3.64
2017-05-09T22:57:26.337Z,3.58
2017-05-09T22:59:54.621Z,2.20
2017-05-09T23:02:22.985Z,3.62
2017-05-09T23:04:52.048Z,4.02
2017-05-09T23:07:20.332Z,2.28
2017-05-09T23:09:48.662Z,3.20
2017-05-09T23:12:16.949Z,2.86
2017-05-09T23:14:45.241Z,2.68
2017-05-09T23:17:14.349Z,5.02
2017-05-09T23:19:42.642Z,3.40
2017-05-09T23:22:10.945Z,3.44
2017-05-09T23:24:39.278Z,2.54
2017-05-09T23:27:07.598Z,2.22
2017-05-09T23:29:35.897Z,3.62
2017-05-09T23:32:04.238Z,2.26
2017-05-09T23:34:32.529Z,2.56
2017-05-09T23:37:01.584Z,4.56
2017-05-09T23:39:30.697Z,7.96
2017-05-09T23:41:58.985Z,2.76
2017-05-09T23:44:27.289Z,2.92
2017-05-09T23:46:55.623Z,3.44
2017-05-09T23:49:23.928Z,3.72
2017-05-09T23:51:52.233Z,3.20
2017-05-09T23:54:20.567Z,4.22
2017-05-09T23:56:48.854Z,2.84
2017-05-09T23:59:17.151Z,2.86
